Markfield, United Kingdom
Current Conditions -  °F | °C
As of 6:50 PM on Sunday 23 Nov 2014 (Local Time) from EGNX Reporting Station
Clear Clear  
Wind Chill: 32°   Ceiling: Unl
Heat Index: 39°   Visibility: 6mi
Dew Point: 37°   Wind: 10mph
Humidity: 93%   Direction: 280°W
Pressure: 30.09"   Gusts: NA
Location:  52.69°N, 1.27°W
Report Text: EGNX 231850Z 28009KT CAVOK 04/03 Q1019
Loading
Personal Weather Stations






























Interactive Weather Map New forecast layout! Learn more

10-Day Weather Forecast

Advertisements
Track Severe Weather on mobile